sensor_id;sensor_type;location;lat;lon;timestamp;temperature;humidity
19340;HTU21D;9804;52.350;6.684;2022-09-24T00:01:53;16.81;-6.00
19340;HTU21D;9804;52.350;6.684;2022-09-24T00:04:18;16.86;-6.00
19340;HTU21D;9804;52.350;6.684;2022-09-24T00:06:47;16.80;-6.00
19340;HTU21D;9804;52.350;6.684;2022-09-24T00:09:15;16.89;-6.00
19340;HTU21D;9804;52.350;6.684;2022-09-24T00:11:41;16.81;-6.00
19340;HTU21D;9804;52.350;6.684;2022-09-24T00:14:10;16.72;-6.00
19340;HTU21D;9804;52.350;6.684;2022-09-24T00:16:36;16.78;-6.00
19340;HTU21D;9804;52.350;6.684;2022-09-24T00:19:03;16.80;-6.00
19340;HTU21D;9804;52.350;6.684;2022-09-24T00:21:31;16.60;-6.00
19340;HTU21D;9804;52.350;6.684;2022-09-24T00:24:00;16.89;-6.00
19340;HTU21D;9804;52.350;6.684;2022-09-24T00:26:25;16.77;-6.00
19340;HTU21D;9804;52.350;6.684;2022-09-24T00:29:12;16.66;-6.00
19340;HTU21D;9804;52.350;6.684;2022-09-24T00:31:38;16.85;-6.00
19340;HTU21D;9804;52.350;6.684;2022-09-24T00:34:04;16.78;-6.00
19340;HTU21D;9804;52.350;6.684;2022-09-24T00:36:29;16.86;-6.00
19340;HTU21D;9804;52.350;6.684;2022-09-24T00:38:56;16.81;-6.00
19340;HTU21D;9804;52.350;6.684;2022-09-24T00:41:25;16.86;-6.00
19340;HTU21D;9804;52.350;6.684;2022-09-24T00:43:50;16.80;-6.00
19340;HTU21D;9804;52.350;6.684;2022-09-24T00:46:38;16.86;-6.00
19340;HTU21D;9804;52.350;6.684;2022-09-24T00:49:16;16.75;-6.00
19340;HTU21D;9804;52.350;6.684;2022-09-24T00:51:44;16.80;-6.00
19340;HTU21D;9804;52.350;6.684;2022-09-24T00:54:21;16.85;-6.00
19340;HTU21D;9804;52.350;6.684;2022-09-24T00:56:48;16.57;-6.00
19340;HTU21D;9804;52.350;6.684;2022-09-24T00:59:16;16.64;-6.00
19340;HTU21D;9804;52.350;6.684;2022-09-24T01:01:44;16.57;-6.00
19340;HTU21D;9804;52.350;6.684;2022-09-24T01:04:10;16.63;-6.00
19340;HTU21D;9804;52.350;6.684;2022-09-24T01:06:36;16.65;-6.00
19340;HTU21D;9804;52.350;6.684;2022-09-24T01:09:02;16.61;-6.00
19340;HTU21D;9804;52.350;6.684;2022-09-24T01:11:47;16.64;-6.00
19340;HTU21D;9804;52.350;6.684;2022-09-24T01:17:33;16.82;-6.00
19340;HTU21D;9804;52.350;6.684;2022-09-24T01:20:35;16.67;-6.00
19340;HTU21D;9804;52.350;6.684;2022-09-24T01:23:21;16.56;-6.00
19340;HTU21D;9804;52.350;6.684;2022-09-24T01:31:02;16.63;-6.00
19340;HTU21D;9804;52.350;6.684;2022-09-24T01:33:31;16.63;-6.00
19340;HTU21D;9804;52.350;6.684;2022-09-24T01:35:59;16.85;-6.00
19340;HTU21D;9804;52.350;6.684;2022-09-24T01:38:31;16.62;-6.00
19340;HTU21D;9804;52.350;6.684;2022-09-24T01:41:00;16.76;-6.00
19340;HTU21D;9804;52.350;6.684;2022-09-24T01:43:28;16.54;-6.00
19340;HTU21D;9804;52.350;6.684;2022-09-24T01:45:55;16.77;-6.00
19340;HTU21D;9804;52.350;6.684;2022-09-24T01:48:23;16.78;-6.00
19340;HTU21D;9804;52.350;6.684;2022-09-24T01:51:22;16.79;-6.00
19340;HTU21D;9804;52.350;6.684;2022-09-24T01:53:56;16.86;-6.00
19340;HTU21D;9804;52.350;6.684;2022-09-24T01:56:24;16.88;-6.00
19340;HTU21D;9804;52.350;6.684;2022-09-24T01:58:57;16.79;-6.00
19340;HTU21D;9804;52.350;6.684;2022-09-24T02:01:29;16.84;-6.00
19340;HTU21D;9804;52.350;6.684;2022-09-24T02:04:02;16.79;-6.00
19340;HTU21D;9804;52.350;6.684;2022-09-24T02:06:39;16.80;-6.00
19340;HTU21D;9804;52.350;6.684;2022-09-24T02:09:35;16.85;-6.00
19340;HTU21D;9804;52.350;6.684;2022-09-24T02:12:16;16.79;-6.00
19340;HTU21D;9804;52.350;6.684;2022-09-24T02:15:02;16.77;-6.00
19340;HTU21D;9804;52.350;6.684;2022-09-24T02:17:33;16.77;-6.00
19340;HTU21D;9804;52.350;6.684;2022-09-24T02:20:00;16.76;-6.00
19340;HTU21D;9804;52.350;6.684;2022-09-24T02:22:28;16.72;-6.00
19340;HTU21D;9804;52.350;6.684;2022-09-24T02:24:59;16.66;-6.00
19340;HTU21D;9804;52.350;6.684;2022-09-24T02:27:26;16.80;-6.00
19340;HTU21D;9804;52.350;6.684;2022-09-24T02:29:57;16.79;-6.00
19340;HTU21D;9804;52.350;6.684;2022-09-24T02:32:25;16.69;-6.00
19340;HTU21D;9804;52.350;6.684;2022-09-24T02:34:54;16.71;-6.00
19340;HTU21D;9804;52.350;6.684;2022-09-24T02:37:23;16.79;-6.00
19340;HTU21D;9804;52.350;6.684;2022-09-24T02:39:49;16.78;-6.00
19340;HTU21D;9804;52.350;6.684;2022-09-24T02:42:15;16.65;-6.00
19340;HTU21D;9804;52.350;6.684;2022-09-24T02:44:41;16.75;-6.00
19340;HTU21D;9804;52.350;6.684;2022-09-24T02:47:06;16.73;-6.00
19340;HTU21D;9804;52.350;6.684;2022-09-24T02:49:32;16.82;-6.00
19340;HTU21D;9804;52.350;6.684;2022-09-24T02:51:57;16.85;-6.00
19340;HTU21D;9804;52.350;6.684;2022-09-24T02:54:23;16.67;-6.00
19340;HTU21D;9804;52.350;6.684;2022-09-24T02:56:49;16.63;-6.00
19340;HTU21D;9804;52.350;6.684;2022-09-24T02:59:15;16.69;-6.00
19340;HTU21D;9804;52.350;6.684;2022-09-24T03:01:40;16.69;-6.00
19340;HTU21D;9804;52.350;6.684;2022-09-24T03:04:06;16.69;-6.00
19340;HTU21D;9804;52.350;6.684;2022-09-24T03:06:31;16.65;-6.00
19340;HTU21D;9804;52.350;6.684;2022-09-24T03:08:57;16.61;-6.00
19340;HTU21D;9804;52.350;6.684;2022-09-24T03:11:22;16.70;-6.00
19340;HTU21D;9804;52.350;6.684;2022-09-24T03:13:49;16.69;-6.00
19340;HTU21D;9804;52.350;6.684;2022-09-24T03:16:15;16.64;-6.00
19340;HTU21D;9804;52.350;6.684;2022-09-24T03:18:41;16.75;-6.00
19340;HTU21D;9804;52.350;6.684;2022-09-24T03:21:10;16.76;-6.00
19340;HTU21D;9804;52.350;6.684;2022-09-24T03:23:35;16.63;-6.00
19340;HTU21D;9804;52.350;6.684;2022-09-24T03:26:01;16.66;-6.00
19340;HTU21D;9804;52.350;6.684;2022-09-24T03:28:27;16.44;-6.00
19340;HTU21D;9804;52.350;6.684;2022-09-24T03:30:53;16.52;-6.00
19340;HTU21D;9804;52.350;6.684;2022-09-24T03:33:39;16.60;-6.00
19340;HTU21D;9804;52.350;6.684;2022-09-24T03:38:42;16.64;-6.00
19340;HTU21D;9804;52.350;6.684;2022-09-24T03:41:09;16.54;-6.00
19340;HTU21D;9804;52.350;6.684;2022-09-24T03:43:36;16.49;-6.00
19340;HTU21D;9804;52.350;6.684;2022-09-24T03:46:02;16.59;-6.00
19340;HTU21D;9804;52.350;6.684;2022-09-24T03:48:27;16.71;-6.00
19340;HTU21D;9804;52.350;6.684;2022-09-24T03:50:54;16.52;-6.00
19340;HTU21D;9804;52.350;6.684;2022-09-24T03:53:20;16.65;-6.00
19340;HTU21D;9804;52.350;6.684;2022-09-24T03:55:51;16.58;-6.00
19340;HTU21D;9804;52.350;6.684;2022-09-24T03:58:17;16.63;-6.00
19340;HTU21D;9804;52.350;6.684;2022-09-24T04:00:42;16.66;-6.00
19340;HTU21D;9804;52.350;6.684;2022-09-24T04:03:08;16.57;-6.00
19340;HTU21D;9804;52.350;6.684;2022-09-24T04:05:33;16.59;-6.00
19340;HTU21D;9804;52.350;6.684;2022-09-24T04:08:00;16.35;-6.00
19340;HTU21D;9804;52.350;6.684;2022-09-24T04:10:25;16.40;-6.00
19340;HTU21D;9804;52.350;6.684;2022-09-24T04:12:51;16.54;-6.00
19340;HTU21D;9804;52.350;6.684;2022-09-24T04:15:17;16.51;-6.00
19340;HTU21D;9804;52.350;6.684;2022-09-24T04:17:53;16.35;-6.00
19340;HTU21D;9804;52.350;6.684;2022-09-24T04:20:20;16.52;-6.00
19340;HTU21D;9804;52.350;6.684;2022-09-24T04:22:48;16.62;-6.00
19340;HTU21D;9804;52.350;6.684;2022-09-24T04:25:14;16.59;-6.00
19340;HTU21D;9804;52.350;6.684;2022-09-24T04:27:39;16.46;-6.00
19340;HTU21D;9804;52.350;6.684;2022-09-24T04:30:06;16.39;-6.00
19340;HTU21D;9804;52.350;6.684;2022-09-24T04:32:31;16.44;-6.00
19340;HTU21D;9804;52.350;6.684;2022-09-24T04:34:57;16.41;-6.00
19340;HTU21D;9804;52.350;6.684;2022-09-24T04:37:22;16.52;-6.00
19340;HTU21D;9804;52.350;6.684;2022-09-24T04:39:47;16.43;-6.00
19340;HTU21D;9804;52.350;6.684;2022-09-24T04:42:17;16.47;-6.00
19340;HTU21D;9804;52.350;6.684;2022-09-24T04:44:43;16.39;-6.00
19340;HTU21D;9804;52.350;6.684;2022-09-24T04:47:11;16.54;-6.00
19340;HTU21D;9804;52.350;6.684;2022-09-24T04:49:36;16.54;-6.00
19340;HTU21D;9804;52.350;6.684;2022-09-24T04:52:01;16.43;-6.00
19340;HTU21D;9804;52.350;6.684;2022-09-24T04:54:27;16.47;-6.00
19340;HTU21D;9804;52.350;6.684;2022-09-24T04:56:54;16.28;-6.00
19340;HTU21D;9804;52.350;6.684;2022-09-24T04:59:19;16.31;-6.00
19340;HTU21D;9804;52.350;6.684;2022-09-24T05:01:45;16.27;-6.00
19340;HTU21D;9804;52.350;6.684;2022-09-24T05:04:11;16.40;-6.00
19340;HTU21D;9804;52.350;6.684;2022-09-24T05:06:36;16.24;-6.00
19340;HTU21D;9804;52.350;6.684;2022-09-24T05:09:02;16.30;-6.00
19340;HTU21D;9804;52.350;6.684;2022-09-24T05:11:27;16.22;-6.00
19340;HTU21D;9804;52.350;6.684;2022-09-24T05:13:53;16.11;-6.00
19340;HTU21D;9804;52.350;6.684;2022-09-24T05:16:18;16.19;-6.00
19340;HTU21D;9804;52.350;6.684;2022-09-24T05:18:43;16.35;-6.00
19340;HTU21D;9804;52.350;6.684;2022-09-24T05:21:09;16.39;-6.00
19340;HTU21D;9804;52.350;6.684;2022-09-24T05:23:34;16.43;-6.00
19340;HTU21D;9804;52.350;6.684;2022-09-24T05:25:59;16.35;-6.00
19340;HTU21D;9804;52.350;6.684;2022-09-24T05:28:43;16.34;-6.00
19340;HTU21D;9804;52.350;6.684;2022-09-24T05:31:08;16.26;-6.00
19340;HTU21D;9804;52.350;6.684;2022-09-24T05:33:35;16.35;-6.00
19340;HTU21D;9804;52.350;6.684;2022-09-24T05:36:00;16.36;-6.00
19340;HTU21D;9804;52.350;6.684;2022-09-24T05:38:26;16.32;-6.00
19340;HTU21D;9804;52.350;6.684;2022-09-24T05:40:51;16.25;-6.00
19340;HTU21D;9804;52.350;6.684;2022-09-24T05:43:17;16.30;-6.00
19340;HTU21D;9804;52.350;6.684;2022-09-24T05:45:45;16.40;-6.00
19340;HTU21D;9804;52.350;6.684;2022-09-24T05:48:11;16.15;-6.00
19340;HTU21D;9804;52.350;6.684;2022-09-24T05:50:37;16.42;-6.00
19340;HTU21D;9804;52.350;6.684;2022-09-24T05:53:04;16.45;-6.00
19340;HTU21D;9804;52.350;6.684;2022-09-24T05:55:30;16.47;-6.00
19340;HTU21D;9804;52.350;6.684;2022-09-24T05:58:01;16.54;-6.00
19340;HTU21D;9804;52.350;6.684;2022-09-24T06:00:26;16.54;-6.00
19340;HTU21D;9804;52.350;6.684;2022-09-24T06:02:52;16.57;-6.00
19340;HTU21D;9804;52.350;6.684;2022-09-24T06:05:17;16.45;-6.00
19340;HTU21D;9804;52.350;6.684;2022-09-24T06:07:42;16.54;-6.00
19340;HTU21D;9804;52.350;6.684;2022-09-24T06:10:08;16.40;-6.00
19340;HTU21D;9804;52.350;6.684;2022-09-24T06:12:33;16.35;-6.00
19340;HTU21D;9804;52.350;6.684;2022-09-24T06:14:59;16.57;-6.00
19340;HTU21D;9804;52.350;6.684;2022-09-24T06:17:25;16.61;-6.00
19340;HTU21D;9804;52.350;6.684;2022-09-24T06:19:51;16.50;-6.00
19340;HTU21D;9804;52.350;6.684;2022-09-24T06:22:16;16.48;-6.00
19340;HTU21D;9804;52.350;6.684;2022-09-24T06:24:42;16.48;-6.00
19340;HTU21D;9804;52.350;6.684;2022-09-24T06:27:07;16.52;-6.00
19340;HTU21D;9804;52.350;6.684;2022-09-24T06:29:33;16.55;-6.00
19340;HTU21D;9804;52.350;6.684;2022-09-24T06:31:58;16.50;-6.00
19340;HTU21D;9804;52.350;6.684;2022-09-24T06:34:26;16.59;-6.00
19340;HTU21D;9804;52.350;6.684;2022-09-24T06:36:55;16.67;-6.00
19340;HTU21D;9804;52.350;6.684;2022-09-24T06:39:23;16.78;-6.00
19340;HTU21D;9804;52.350;6.684;2022-09-24T06:41:50;16.74;-6.00
19340;HTU21D;9804;52.350;6.684;2022-09-24T06:44:16;16.64;-6.00
19340;HTU21D;9804;52.350;6.684;2022-09-24T06:46:44;16.70;-6.00
19340;HTU21D;9804;52.350;6.684;2022-09-24T06:49:10;16.66;-6.00
19340;HTU21D;9804;52.350;6.684;2022-09-24T06:51:36;16.71;-6.00
19340;HTU21D;9804;52.350;6.684;2022-09-24T06:54:02;16.77;-6.00
19340;HTU21D;9804;52.350;6.684;2022-09-24T06:56:28;16.79;-6.00
19340;HTU21D;9804;52.350;6.684;2022-09-24T06:58:55;16.88;-6.00
19340;HTU21D;9804;52.350;6.684;2022-09-24T07:01:20;16.76;-6.00
19340;HTU21D;9804;52.350;6.684;2022-09-24T07:03:46;16.89;-6.00
19340;HTU21D;9804;52.350;6.684;2022-09-24T07:06:11;17.00;-6.00
19340;HTU21D;9804;52.350;6.684;2022-09-24T07:08:36;16.87;-6.00
19340;HTU21D;9804;52.350;6.684;2022-09-24T07:11:02;16.95;-6.00
19340;HTU21D;9804;52.350;6.684;2022-09-24T07:13:28;17.05;-6.00
19340;HTU21D;9804;52.350;6.684;2022-09-24T07:15:54;17.00;-6.00
19340;HTU21D;9804;52.350;6.684;2022-09-24T07:18:19;16.86;-6.00
19340;HTU21D;9804;52.350;6.684;2022-09-24T07:20:51;16.98;-6.00
19340;HTU21D;9804;52.350;6.684;2022-09-24T07:23:16;16.99;-6.00
19340;HTU21D;9804;52.350;6.684;2022-09-24T07:25:42;17.17;-6.00
19340;HTU21D;9804;52.350;6.684;2022-09-24T07:28:11;17.16;-6.00
19340;HTU21D;9804;52.350;6.684;2022-09-24T07:30:38;17.15;-6.00
19340;HTU21D;9804;52.350;6.684;2022-09-24T07:33:04;17.06;-6.00
19340;HTU21D;9804;52.350;6.684;2022-09-24T07:35:29;17.13;-6.00
19340;HTU21D;9804;52.350;6.684;2022-09-24T07:38:07;17.37;-6.00
19340;HTU21D;9804;52.350;6.684;2022-09-24T07:40:32;17.29;-6.00
19340;HTU21D;9804;52.350;6.684;2022-09-24T07:42:58;17.32;-6.00
19340;HTU21D;9804;52.350;6.684;2022-09-24T07:45:26;17.26;-6.00
19340;HTU21D;9804;52.350;6.684;2022-09-24T07:48:00;17.19;-6.00
19340;HTU21D;9804;52.350;6.684;2022-09-24T07:50:28;17.31;-6.00
19340;HTU21D;9804;52.350;6.684;2022-09-24T07:52:53;17.09;-6.00
19340;HTU21D;9804;52.350;6.684;2022-09-24T07:55:19;17.29;-6.00
19340;HTU21D;9804;52.350;6.684;2022-09-24T07:57:47;17.26;-6.00
19340;HTU21D;9804;52.350;6.684;2022-09-24T08:00:13;17.36;-6.00
19340;HTU21D;9804;52.350;6.684;2022-09-24T08:02:38;17.29;-6.00
19340;HTU21D;9804;52.350;6.684;2022-09-24T08:05:04;17.20;-6.00
19340;HTU21D;9804;52.350;6.684;2022-09-24T08:07:30;17.29;-6.00
19340;HTU21D;9804;52.350;6.684;2022-09-24T08:09:55;17.49;-6.00
19340;HTU21D;9804;52.350;6.684;2022-09-24T08:12:24;17.35;-6.00
19340;HTU21D;9804;52.350;6.684;2022-09-24T08:14:50;17.47;-6.00
19340;HTU21D;9804;52.350;6.684;2022-09-24T08:17:16;17.46;-6.00
19340;HTU21D;9804;52.350;6.684;2022-09-24T08:19:41;17.15;-6.00
19340;HTU21D;9804;52.350;6.684;2022-09-24T08:22:07;17.34;-6.00
19340;HTU21D;9804;52.350;6.684;2022-09-24T08:24:32;17.33;-6.00
19340;HTU21D;9804;52.350;6.684;2022-09-24T08:26:58;17.38;-6.00
19340;HTU21D;9804;52.350;6.684;2022-09-24T08:29:24;17.32;-6.00
19340;HTU21D;9804;52.350;6.684;2022-09-24T08:31:49;17.47;-6.00
19340;HTU21D;9804;52.350;6.684;2022-09-24T08:34:14;17.24;-6.00
19340;HTU21D;9804;52.350;6.684;2022-09-24T08:36:40;17.09;-6.00
19340;HTU21D;9804;52.350;6.684;2022-09-24T08:39:05;17.22;-6.00
19340;HTU21D;9804;52.350;6.684;2022-09-24T08:41:59;17.40;-6.00
19340;HTU21D;9804;52.350;6.684;2022-09-24T08:44:29;17.44;-6.00
19340;HTU21D;9804;52.350;6.684;2022-09-24T08:47:23;17.45;-6.00
19340;HTU21D;9804;52.350;6.684;2022-09-24T08:50:02;17.30;-6.00
19340;HTU21D;9804;52.350;6.684;2022-09-24T08:55:14;16.99;-6.00
19340;HTU21D;9804;52.350;6.684;2022-09-24T09:03:42;17.36;-6.00
19340;HTU21D;9804;52.350;6.684;2022-09-24T09:06:23;17.59;-6.00
19340;HTU21D;9804;52.350;6.684;2022-09-24T09:09:02;17.79;-6.00
19340;HTU21D;9804;52.350;6.684;2022-09-24T09:11:31;17.36;-6.00
19340;HTU21D;9804;52.350;6.684;2022-09-24T09:16:48;17.52;-6.00
19340;HTU21D;9804;52.350;6.684;2022-09-24T09:19:15;17.32;-6.00
19340;HTU21D;9804;52.350;6.684;2022-09-24T09:21:46;17.60;-6.00
19340;HTU21D;9804;52.350;6.684;2022-09-24T09:24:39;17.79;-6.00
19340;HTU21D;9804;52.350;6.684;2022-09-24T09:27:11;17.66;-6.00
19340;HTU21D;9804;52.350;6.684;2022-09-24T09:29:39;17.44;-6.00
19340;HTU21D;9804;52.350;6.684;2022-09-24T09:38:14;17.41;-6.00
19340;HTU21D;9804;52.350;6.684;2022-09-24T09:41:30;17.22;-6.00
19340;HTU21D;9804;52.350;6.684;2022-09-24T09:43:28;17.43;-6.00
19340;HTU21D;9804;52.350;6.684;2022-09-24T09:46:16;17.34;-6.00
19340;HTU21D;9804;52.350;6.684;2022-09-24T09:48:45;17.65;-6.00
19340;HTU21D;9804;52.350;6.684;2022-09-24T09:51:16;17.17;-6.00
19340;HTU21D;9804;52.350;6.684;2022-09-24T09:53:57;17.02;-6.00
19340;HTU21D;9804;52.350;6.684;2022-09-24T09:56:32;16.95;-6.00
19340;HTU21D;9804;52.350;6.684;2022-09-24T09:59:16;16.98;-6.00
19340;HTU21D;9804;52.350;6.684;2022-09-24T10:01:45;16.96;-6.00
19340;HTU21D;9804;52.350;6.684;2022-09-24T10:04:35;16.84;-6.00
19340;HTU21D;9804;52.350;6.684;2022-09-24T10:07:09;16.71;-6.00
19340;HTU21D;9804;52.350;6.684;2022-09-24T10:09:36;16.87;-6.00
19340;HTU21D;9804;52.350;6.684;2022-09-24T10:14:33;17.17;-6.00
19340;HTU21D;9804;52.350;6.684;2022-09-24T10:16:59;17.14;-6.00
19340;HTU21D;9804;52.350;6.684;2022-09-24T10:19:32;17.36;-6.00
19340;HTU21D;9804;52.350;6.684;2022-09-24T10:22:13;17.40;-6.00
19340;HTU21D;9804;52.350;6.684;2022-09-24T10:24:41;17.59;-6.00
19340;HTU21D;9804;52.350;6.684;2022-09-24T10:27:12;17.24;-6.00
19340;HTU21D;9804;52.350;6.684;2022-09-24T10:29:38;17.32;-6.00
19340;HTU21D;9804;52.350;6.684;2022-09-24T10:32:24;17.34;-6.00
19340;HTU21D;9804;52.350;6.684;2022-09-24T10:34:58;17.10;-6.00
19340;HTU21D;9804;52.350;6.684;2022-09-24T10:37:25;17.01;-6.00
19340;HTU21D;9804;52.350;6.684;2022-09-24T10:40:02;16.94;-6.00
19340;HTU21D;9804;52.350;6.684;2022-09-24T10:42:35;17.25;-6.00
19340;HTU21D;9804;52.350;6.684;2022-09-24T10:45:02;17.43;-6.00
19340;HTU21D;9804;52.350;6.684;2022-09-24T10:50:35;17.22;-6.00
19340;HTU21D;9804;52.350;6.684;2022-09-24T10:53:23;17.00;-6.00
19340;HTU21D;9804;52.350;6.684;2022-09-24T10:56:09;17.16;-6.00
19340;HTU21D;9804;52.350;6.684;2022-09-24T11:01:32;17.31;-6.00
19340;HTU21D;9804;52.350;6.684;2022-09-24T11:07:06;17.18;-6.00
19340;HTU21D;9804;52.350;6.684;2022-09-24T11:12:26;17.47;-6.00
19340;HTU21D;9804;52.350;6.684;2022-09-24T11:18:07;17.53;-6.00
19340;HTU21D;9804;52.350;6.684;2022-09-24T11:20:37;17.53;-6.00
19340;HTU21D;9804;52.350;6.684;2022-09-24T11:26:19;17.63;-6.00
19340;HTU21D;9804;52.350;6.684;2022-09-24T11:31:40;17.64;-6.00
19340;HTU21D;9804;52.350;6.684;2022-09-24T11:34:27;17.80;-6.00
19340;HTU21D;9804;52.350;6.684;2022-09-24T11:37:09;17.52;-6.00
19340;HTU21D;9804;52.350;6.684;2022-09-24T11:39:53;17.31;-6.00
19340;HTU21D;9804;52.350;6.684;2022-09-24T11:42:28;17.39;-6.00
19340;HTU21D;9804;52.350;6.684;2022-09-24T11:47:38;17.25;-6.00
19340;HTU21D;9804;52.350;6.684;2022-09-24T11:52:40;17.07;-6.00
19340;HTU21D;9804;52.350;6.684;2022-09-24T11:55:21;16.89;-6.00
19340;HTU21D;9804;52.350;6.684;2022-09-24T11:57:58;17.37;-6.00
19340;HTU21D;9804;52.350;6.684;2022-09-24T12:00:32;16.94;-6.00
19340;HTU21D;9804;52.350;6.684;2022-09-24T12:03:15;17.17;-6.00
19340;HTU21D;9804;52.350;6.684;2022-09-24T12:05:52;17.37;-6.00
19340;HTU21D;9804;52.350;6.684;2022-09-24T12:08:29;17.22;-6.00
19340;HTU21D;9804;52.350;6.684;2022-09-24T12:11:19;17.63;-6.00
19340;HTU21D;9804;52.350;6.684;2022-09-24T12:13:52;17.49;-6.00
19340;HTU21D;9804;52.350;6.684;2022-09-24T12:16:25;17.13;-6.00
19340;HTU21D;9804;52.350;6.684;2022-09-24T12:18:55;17.05;-6.00
19340;HTU21D;9804;52.350;6.684;2022-09-24T12:21:25;17.21;-6.00
19340;HTU21D;9804;52.350;6.684;2022-09-24T12:23:59;17.16;-6.00
19340;HTU21D;9804;52.350;6.684;2022-09-24T12:26:27;17.06;-6.00
19340;HTU21D;9804;52.350;6.684;2022-09-24T12:32:19;16.85;-6.00
19340;HTU21D;9804;52.350;6.684;2022-09-24T12:35:15;17.19;-6.00
19340;HTU21D;9804;52.350;6.684;2022-09-24T12:37:45;17.22;-6.00
19340;HTU21D;9804;52.350;6.684;2022-09-24T12:43:17;16.93;-6.00
19340;HTU21D;9804;52.350;6.684;2022-09-24T12:45:43;16.95;-6.00
19340;HTU21D;9804;52.350;6.684;2022-09-24T12:48:14;17.13;-6.00
19340;HTU21D;9804;52.350;6.684;2022-09-24T12:50:40;17.30;-6.00
19340;HTU21D;9804;52.350;6.684;2022-09-24T12:53:19;17.39;-6.00
19340;HTU21D;9804;52.350;6.684;2022-09-24T12:55:49;17.21;-6.00
19340;HTU21D;9804;52.350;6.684;2022-09-24T12:58:40;17.66;-6.00
19340;HTU21D;9804;52.350;6.684;2022-09-24T13:01:24;17.66;-6.00
19340;HTU21D;9804;52.350;6.684;2022-09-24T13:06:46;17.63;-6.00
19340;HTU21D;9804;52.350;6.684;2022-09-24T13:09:39;17.61;-6.00
19340;HTU21D;9804;52.350;6.684;2022-09-24T13:14:41;17.33;-6.00
19340;HTU21D;9804;52.350;6.684;2022-09-24T13:17:07;17.31;-6.00
19340;HTU21D;9804;52.350;6.684;2022-09-24T13:19:40;17.47;-6.00
19340;HTU21D;9804;52.350;6.684;2022-09-24T13:22:28;17.54;-6.00
19340;HTU21D;9804;52.350;6.684;2022-09-24T13:30:12;17.28;-6.00
19340;HTU21D;9804;52.350;6.684;2022-09-24T13:32:55;16.90;-6.00
19340;HTU21D;9804;52.350;6.684;2022-09-24T13:35:26;16.91;-6.00
19340;HTU21D;9804;52.350;6.684;2022-09-24T13:38:06;16.98;-6.00
19340;HTU21D;9804;52.350;6.684;2022-09-24T13:40:36;16.71;-6.00
19340;HTU21D;9804;52.350;6.684;2022-09-24T13:46:11;16.88;-6.00
19340;HTU21D;9804;52.350;6.684;2022-09-24T13:48:47;17.21;-6.00
19340;HTU21D;9804;52.350;6.684;2022-09-24T13:51:15;17.35;-6.00
19340;HTU21D;9804;52.350;6.684;2022-09-24T13:53:47;17.26;-6.00
19340;HTU21D;9804;52.350;6.684;2022-09-24T13:56:16;17.52;-6.00
19340;HTU21D;9804;52.350;6.684;2022-09-24T13:58:42;17.24;-6.00
19340;HTU21D;9804;52.350;6.684;2022-09-24T14:01:21;17.24;-6.00
19340;HTU21D;9804;52.350;6.684;2022-09-24T14:03:54;17.32;-6.00
19340;HTU21D;9804;52.350;6.684;2022-09-24T14:06:31;17.55;-6.00
19340;HTU21D;9804;52.350;6.684;2022-09-24T14:08:57;17.37;-6.00
19340;HTU21D;9804;52.350;6.684;2022-09-24T14:11:23;17.66;-6.00
19340;HTU21D;9804;52.350;6.684;2022-09-24T14:13:49;17.80;-6.00
19340;HTU21D;9804;52.350;6.684;2022-09-24T14:16:20;17.56;-6.00
19340;HTU21D;9804;52.350;6.684;2022-09-24T14:18:46;17.50;-6.00
19340;HTU21D;9804;52.350;6.684;2022-09-24T14:21:21;17.66;-6.00
19340;HTU21D;9804;52.350;6.684;2022-09-24T14:24:02;17.81;-6.00
19340;HTU21D;9804;52.350;6.684;2022-09-24T14:26:31;17.92;-6.00
19340;HTU21D;9804;52.350;6.684;2022-09-24T14:28:59;17.34;-6.00
19340;HTU21D;9804;52.350;6.684;2022-09-24T14:31:28;17.40;-6.00
19340;HTU21D;9804;52.350;6.684;2022-09-24T14:33:53;17.56;-6.00
19340;HTU21D;9804;52.350;6.684;2022-09-24T14:36:19;17.65;-6.00
19340;HTU21D;9804;52.350;6.684;2022-09-24T14:38:58;17.74;-6.00
19340;HTU21D;9804;52.350;6.684;2022-09-24T14:41:29;17.84;-6.00
19340;HTU21D;9804;52.350;6.684;2022-09-24T14:46:30;17.63;-6.00
19340;HTU21D;9804;52.350;6.684;2022-09-24T14:49:45;17.78;-6.00
19340;HTU21D;9804;52.350;6.684;2022-09-24T14:56:53;18.09;-6.00
19340;HTU21D;9804;52.350;6.684;2022-09-24T14:59:29;18.07;-6.00
19340;HTU21D;9804;52.350;6.684;2022-09-24T15:04:39;17.92;-6.00
19340;HTU21D;9804;52.350;6.684;2022-09-24T15:07:23;17.87;-6.00
19340;HTU21D;9804;52.350;6.684;2022-09-24T15:09:51;18.03;-6.00
19340;HTU21D;9804;52.350;6.684;2022-09-24T15:12:20;17.87;-6.00
19340;HTU21D;9804;52.350;6.684;2022-09-24T15:14:57;18.26;-6.00
19340;HTU21D;9804;52.350;6.684;2022-09-24T15:17:31;18.20;-6.00
19340;HTU21D;9804;52.350;6.684;2022-09-24T15:19:57;18.22;-6.00
19340;HTU21D;9804;52.350;6.684;2022-09-24T15:22:25;17.79;-6.00
19340;HTU21D;9804;52.350;6.684;2022-09-24T15:24:52;18.18;-6.00
19340;HTU21D;9804;52.350;6.684;2022-09-24T15:27:21;17.85;-6.00
19340;HTU21D;9804;52.350;6.684;2022-09-24T15:29:47;17.87;-6.00
19340;HTU21D;9804;52.350;6.684;2022-09-24T15:32:18;17.66;-6.00
19340;HTU21D;9804;52.350;6.684;2022-09-24T15:34:43;17.77;-6.00
19340;HTU21D;9804;52.350;6.684;2022-09-24T15:37:15;17.73;-6.00
19340;HTU21D;9804;52.350;6.684;2022-09-24T15:39:41;17.20;-6.00
19340;HTU21D;9804;52.350;6.684;2022-09-24T15:42:23;17.41;-6.00
19340;HTU21D;9804;52.350;6.684;2022-09-24T15:44:49;17.31;-6.00
19340;HTU21D;9804;52.350;6.684;2022-09-24T15:47:15;16.99;-6.00
19340;HTU21D;9804;52.350;6.684;2022-09-24T15:49:41;17.26;-6.00
19340;HTU21D;9804;52.350;6.684;2022-09-24T15:52:13;17.24;-6.00
19340;HTU21D;9804;52.350;6.684;2022-09-24T15:54:39;17.02;-6.00
19340;HTU21D;9804;52.350;6.684;2022-09-24T15:57:04;16.96;-6.00
19340;HTU21D;9804;52.350;6.684;2022-09-24T15:59:30;16.81;-6.00
19340;HTU21D;9804;52.350;6.684;2022-09-24T16:01:59;17.15;-6.00
19340;HTU21D;9804;52.350;6.684;2022-09-24T16:04:25;16.90;-6.00
19340;HTU21D;9804;52.350;6.684;2022-09-24T16:06:50;16.80;-6.00
19340;HTU21D;9804;52.350;6.684;2022-09-24T16:09:15;16.87;-6.00
19340;HTU21D;9804;52.350;6.684;2022-09-24T16:11:41;16.86;-6.00
19340;HTU21D;9804;52.350;6.684;2022-09-24T16:14:06;17.02;-6.00
19340;HTU21D;9804;52.350;6.684;2022-09-24T16:16:32;17.06;-6.00
19340;HTU21D;9804;52.350;6.684;2022-09-24T16:18:58;17.25;-6.00
19340;HTU21D;9804;52.350;6.684;2022-09-24T16:21:23;17.04;-6.00
19340;HTU21D;9804;52.350;6.684;2022-09-24T16:23:53;17.00;-6.00
19340;HTU21D;9804;52.350;6.684;2022-09-24T16:26:19;16.94;-6.00
19340;HTU21D;9804;52.350;6.684;2022-09-24T16:28:44;16.71;-6.00
19340;HTU21D;9804;52.350;6.684;2022-09-24T16:31:09;16.58;-6.00
19340;HTU21D;9804;52.350;6.684;2022-09-24T16:33:38;16.86;-6.00
19340;HTU21D;9804;52.350;6.684;2022-09-24T16:36:05;16.74;-6.00
19340;HTU21D;9804;52.350;6.684;2022-09-24T16:38:33;16.92;-6.00
19340;HTU21D;9804;52.350;6.684;2022-09-24T16:40:59;16.89;-6.00
19340;HTU21D;9804;52.350;6.684;2022-09-24T16:43:25;16.98;-6.00
19340;HTU21D;9804;52.350;6.684;2022-09-24T16:45:50;16.59;-6.00
19340;HTU21D;9804;52.350;6.684;2022-09-24T16:48:16;16.91;-6.00
19340;HTU21D;9804;52.350;6.684;2022-09-24T16:50:41;16.79;-6.00
19340;HTU21D;9804;52.350;6.684;2022-09-24T16:53:06;16.72;-6.00
19340;HTU21D;9804;52.350;6.684;2022-09-24T16:55:32;16.76;-6.00
19340;HTU21D;9804;52.350;6.684;2022-09-24T16:57:57;16.58;-6.00
19340;HTU21D;9804;52.350;6.684;2022-09-24T17:00:23;16.62;-6.00
19340;HTU21D;9804;52.350;6.684;2022-09-24T17:02:48;16.49;-6.00
19340;HTU21D;9804;52.350;6.684;2022-09-24T17:05:13;16.51;-6.00
19340;HTU21D;9804;52.350;6.684;2022-09-24T17:07:39;16.44;-6.00
19340;HTU21D;9804;52.350;6.684;2022-09-24T17:10:04;16.56;-6.00
19340;HTU21D;9804;52.350;6.684;2022-09-24T17:12:49;16.26;-6.00
19340;HTU21D;9804;52.350;6.684;2022-09-24T17:15:16;16.44;-6.00